sensor_id;sensor_type;location;lat;lon;timestamp;temperature;humidity
69031;DHT22;56083;48.774;8.942;2023-09-30T00:00:37;15.20;99.90
69031;DHT22;56083;48.774;8.942;2023-09-30T00:03:03;15.10;99.90
69031;DHT22;56083;48.774;8.942;2023-09-30T00:05:29;15.00;99.90
69031;DHT22;56083;48.774;8.942;2023-09-30T00:07:54;15.00;99.90
69031;DHT22;56083;48.774;8.942;2023-09-30T00:10:20;15.00;99.90
69031;DHT22;56083;48.774;8.942;2023-09-30T00:12:45;15.00;99.90
69031;DHT22;56083;48.774;8.942;2023-09-30T00:15:11;15.00;99.90
69031;DHT22;56083;48.774;8.942;2023-09-30T00:17:37;14.90;99.90
69031;DHT22;56083;48.774;8.942;2023-09-30T00:20:04;14.90;99.90
69031;DHT22;56083;48.774;8.942;2023-09-30T00:22:30;14.90;99.90
69031;DHT22;56083;48.774;8.942;2023-09-30T00:24:55;14.90;99.90
69031;DHT22;56083;48.774;8.942;2023-09-30T00:27:21;15.00;99.90
69031;DHT22;56083;48.774;8.942;2023-09-30T00:29:48;15.10;99.90
69031;DHT22;56083;48.774;8.942;2023-09-30T00:32:14;15.10;99.90
69031;DHT22;56083;48.774;8.942;2023-09-30T00:34:39;15.20;99.90
69031;DHT22;56083;48.774;8.942;2023-09-30T00:37:05;15.20;99.90
69031;DHT22;56083;48.774;8.942;2023-09-30T00:39:32;15.30;99.90
69031;DHT22;56083;48.774;8.942;2023-09-30T00:41:58;15.30;99.90
69031;DHT22;56083;48.774;8.942;2023-09-30T00:44:28;15.40;99.90
69031;DHT22;56083;48.774;8.942;2023-09-30T00:46:56;15.40;99.90
69031;DHT22;56083;48.774;8.942;2023-09-30T00:49:23;15.50;99.90
69031;DHT22;56083;48.774;8.942;2023-09-30T00:51:50;15.50;99.90
69031;DHT22;56083;48.774;8.942;2023-09-30T00:54:17;15.50;99.90
69031;DHT22;56083;48.774;8.942;2023-09-30T00:56:45;15.50;99.90
69031;DHT22;56083;48.774;8.942;2023-09-30T00:59:15;15.60;99.90
69031;DHT22;56083;48.774;8.942;2023-09-30T01:01:45;15.60;99.90
69031;DHT22;56083;48.774;8.942;2023-09-30T01:04:12;15.70;99.90
69031;DHT22;56083;48.774;8.942;2023-09-30T01:06:38;15.70;99.90
69031;DHT22;56083;48.774;8.942;2023-09-30T01:09:04;15.70;99.90
69031;DHT22;56083;48.774;8.942;2023-09-30T01:11:30;15.70;99.90
69031;DHT22;56083;48.774;8.942;2023-09-30T01:13:56;15.70;99.90
69031;DHT22;56083;48.774;8.942;2023-09-30T01:16:22;15.60;99.90
69031;DHT22;56083;48.774;8.942;2023-09-30T01:18:49;15.50;99.90
69031;DHT22;56083;48.774;8.942;2023-09-30T01:21:14;15.50;99.90
69031;DHT22;56083;48.774;8.942;2023-09-30T01:23:40;15.50;99.90
69031;DHT22;56083;48.774;8.942;2023-09-30T01:26:09;15.50;99.90
69031;DHT22;56083;48.774;8.942;2023-09-30T01:28:36;15.50;99.90
69031;DHT22;56083;48.774;8.942;2023-09-30T01:31:01;15.50;99.90
69031;DHT22;56083;48.774;8.942;2023-09-30T01:33:27;15.40;99.90
69031;DHT22;56083;48.774;8.942;2023-09-30T01:35:54;15.40;99.90
69031;DHT22;56083;48.774;8.942;2023-09-30T01:38:19;15.40;99.90
69031;DHT22;56083;48.774;8.942;2023-09-30T01:40:45;15.40;99.90
69031;DHT22;56083;48.774;8.942;2023-09-30T01:43:12;15.40;99.90
69031;DHT22;56083;48.774;8.942;2023-09-30T01:45:42;15.30;99.90
69031;DHT22;56083;48.774;8.942;2023-09-30T01:48:08;15.30;99.90
69031;DHT22;56083;48.774;8.942;2023-09-30T01:50:37;15.30;99.90
69031;DHT22;56083;48.774;8.942;2023-09-30T01:53:04;15.30;99.90
69031;DHT22;56083;48.774;8.942;2023-09-30T01:55:32;15.20;99.90
69031;DHT22;56083;48.774;8.942;2023-09-30T01:57:58;15.20;99.90
69031;DHT22;56083;48.774;8.942;2023-09-30T02:00:23;15.20;99.90
69031;DHT22;56083;48.774;8.942;2023-09-30T02:02:49;15.20;99.90
69031;DHT22;56083;48.774;8.942;2023-09-30T02:05:14;15.20;99.90
69031;DHT22;56083;48.774;8.942;2023-09-30T02:07:40;15.20;99.90
69031;DHT22;56083;48.774;8.942;2023-09-30T02:10:06;15.20;99.90
69031;DHT22;56083;48.774;8.942;2023-09-30T02:12:32;15.20;99.90
69031;DHT22;56083;48.774;8.942;2023-09-30T02:14:58;15.20;99.90
69031;DHT22;56083;48.774;8.942;2023-09-30T02:17:24;15.30;99.90
69031;DHT22;56083;48.774;8.942;2023-09-30T02:19:49;15.30;99.90
69031;DHT22;56083;48.774;8.942;2023-09-30T02:22:15;15.20;99.90
69031;DHT22;56083;48.774;8.942;2023-09-30T02:24:41;15.20;99.90
69031;DHT22;56083;48.774;8.942;2023-09-30T02:27:06;15.20;99.90
69031;DHT22;56083;48.774;8.942;2023-09-30T02:29:33;15.20;99.90
69031;DHT22;56083;48.774;8.942;2023-09-30T02:31:59;15.10;99.90
69031;DHT22;56083;48.774;8.942;2023-09-30T02:34:25;15.10;99.90
69031;DHT22;56083;48.774;8.942;2023-09-30T02:36:51;15.00;99.90
69031;DHT22;56083;48.774;8.942;2023-09-30T02:39:17;15.00;99.90
69031;DHT22;56083;48.774;8.942;2023-09-30T02:41:43;15.00;99.90
69031;DHT22;56083;48.774;8.942;2023-09-30T02:44:09;14.90;99.90
69031;DHT22;56083;48.774;8.942;2023-09-30T02:46:34;14.90;99.90
69031;DHT22;56083;48.774;8.942;2023-09-30T02:49:03;15.00;99.90
69031;DHT22;56083;48.774;8.942;2023-09-30T02:51:29;15.00;99.90
69031;DHT22;56083;48.774;8.942;2023-09-30T02:53:55;15.00;99.90
69031;DHT22;56083;48.774;8.942;2023-09-30T02:56:21;15.00;99.90
69031;DHT22;56083;48.774;8.942;2023-09-30T02:58:50;15.00;99.90
69031;DHT22;56083;48.774;8.942;2023-09-30T03:01:17;15.00;99.90
69031;DHT22;56083;48.774;8.942;2023-09-30T03:03:43;14.90;99.90
69031;DHT22;56083;48.774;8.942;2023-09-30T03:06:11;14.90;99.90
69031;DHT22;56083;48.774;8.942;2023-09-30T03:08:37;14.90;99.90
69031;DHT22;56083;48.774;8.942;2023-09-30T03:11:03;14.90;99.90
69031;DHT22;56083;48.774;8.942;2023-09-30T03:13:30;14.90;99.90
69031;DHT22;56083;48.774;8.942;2023-09-30T03:15:56;14.90;99.90
69031;DHT22;56083;48.774;8.942;2023-09-30T03:18:22;14.90;99.90
69031;DHT22;56083;48.774;8.942;2023-09-30T03:20:57;14.90;99.90
69031;DHT22;56083;48.774;8.942;2023-09-30T03:23:28;14.90;99.90
69031;DHT22;56083;48.774;8.942;2023-09-30T03:25:59;14.80;99.90
69031;DHT22;56083;48.774;8.942;2023-09-30T03:28:26;14.80;99.90
69031;DHT22;56083;48.774;8.942;2023-09-30T03:30:52;14.80;99.90
69031;DHT22;56083;48.774;8.942;2023-09-30T03:33:17;14.80;99.90
69031;DHT22;56083;48.774;8.942;2023-09-30T03:35:43;14.80;99.90
69031;DHT22;56083;48.774;8.942;2023-09-30T03:38:10;14.80;99.90
69031;DHT22;56083;48.774;8.942;2023-09-30T03:40:39;14.80;99.90
69031;DHT22;56083;48.774;8.942;2023-09-30T03:43:05;14.80;99.90
69031;DHT22;56083;48.774;8.942;2023-09-30T03:45:34;14.80;99.90
69031;DHT22;56083;48.774;8.942;2023-09-30T03:48:00;14.80;99.90
69031;DHT22;56083;48.774;8.942;2023-09-30T03:50:27;14.80;99.90
69031;DHT22;56083;48.774;8.942;2023-09-30T03:53:01;14.80;99.90
69031;DHT22;56083;48.774;8.942;2023-09-30T03:55:27;14.80;99.90
69031;DHT22;56083;48.774;8.942;2023-09-30T03:57:55;14.80;99.90
69031;DHT22;56083;48.774;8.942;2023-09-30T04:00:20;14.80;99.90
69031;DHT22;56083;48.774;8.942;2023-09-30T04:02:47;14.70;99.90
69031;DHT22;56083;48.774;8.942;2023-09-30T04:05:20;14.70;99.90
69031;DHT22;56083;48.774;8.942;2023-09-30T04:07:49;14.60;99.90
69031;DHT22;56083;48.774;8.942;2023-09-30T04:10:15;14.70;99.90
69031;DHT22;56083;48.774;8.942;2023-09-30T04:12:41;14.70;99.90
69031;DHT22;56083;48.774;8.942;2023-09-30T04:15:07;14.70;99.90
69031;DHT22;56083;48.774;8.942;2023-09-30T04:17:32;14.70;99.90
69031;DHT22;56083;48.774;8.942;2023-09-30T04:19:58;14.70;99.90
69031;DHT22;56083;48.774;8.942;2023-09-30T04:22:25;14.70;99.90
69031;DHT22;56083;48.774;8.942;2023-09-30T04:24:51;14.70;99.90
69031;DHT22;56083;48.774;8.942;2023-09-30T04:27:17;14.70;99.90
69031;DHT22;56083;48.774;8.942;2023-09-30T04:29:43;14.70;99.90
69031;DHT22;56083;48.774;8.942;2023-09-30T04:32:09;14.70;99.90
69031;DHT22;56083;48.774;8.942;2023-09-30T04:34:35;14.60;99.90
69031;DHT22;56083;48.774;8.942;2023-09-30T04:37:01;14.60;99.90
69031;DHT22;56083;48.774;8.942;2023-09-30T04:39:27;14.60;99.90
69031;DHT22;56083;48.774;8.942;2023-09-30T04:41:53;14.60;99.90
69031;DHT22;56083;48.774;8.942;2023-09-30T04:44:20;14.60;99.90
69031;DHT22;56083;48.774;8.942;2023-09-30T04:46:47;14.70;99.90
69031;DHT22;56083;48.774;8.942;2023-09-30T04:49:15;14.70;99.90
69031;DHT22;56083;48.774;8.942;2023-09-30T04:51:42;14.70;99.90
69031;DHT22;56083;48.774;8.942;2023-09-30T04:54:08;14.60;99.90
69031;DHT22;56083;48.774;8.942;2023-09-30T04:56:37;14.60;99.90
69031;DHT22;56083;48.774;8.942;2023-09-30T04:59:04;14.60;99.90
69031;DHT22;56083;48.774;8.942;2023-09-30T05:01:30;14.50;99.90
69031;DHT22;56083;48.774;8.942;2023-09-30T05:03:55;14.50;99.90
69031;DHT22;56083;48.774;8.942;2023-09-30T05:06:21;14.50;99.90
69031;DHT22;56083;48.774;8.942;2023-09-30T05:08:47;14.40;99.90
69031;DHT22;56083;48.774;8.942;2023-09-30T05:11:13;14.40;99.90
69031;DHT22;56083;48.774;8.942;2023-09-30T05:13:39;14.40;99.90
69031;DHT22;56083;48.774;8.942;2023-09-30T05:16:05;14.40;99.90
69031;DHT22;56083;48.774;8.942;2023-09-30T05:18:32;14.40;99.90
69031;DHT22;56083;48.774;8.942;2023-09-30T05:20:58;14.40;99.90
69031;DHT22;56083;48.774;8.942;2023-09-30T05:23:24;14.30;99.90
69031;DHT22;56083;48.774;8.942;2023-09-30T05:25:51;14.30;99.90
69031;DHT22;56083;48.774;8.942;2023-09-30T05:28:16;14.20;99.90
69031;DHT22;56083;48.774;8.942;2023-09-30T05:30:42;14.10;99.90
69031;DHT22;56083;48.774;8.942;2023-09-30T05:33:08;14.00;99.90
69031;DHT22;56083;48.774;8.942;2023-09-30T05:35:42;14.00;99.90
69031;DHT22;56083;48.774;8.942;2023-09-30T05:38:08;13.90;99.90
69031;DHT22;56083;48.774;8.942;2023-09-30T05:40:34;13.80;99.90
69031;DHT22;56083;48.774;8.942;2023-09-30T05:43:00;13.80;99.90
69031;DHT22;56083;48.774;8.942;2023-09-30T05:45:27;13.70;99.90
69031;DHT22;56083;48.774;8.942;2023-09-30T05:47:53;13.80;99.90
69031;DHT22;56083;48.774;8.942;2023-09-30T05:50:20;13.70;99.90
69031;DHT22;56083;48.774;8.942;2023-09-30T05:52:54;13.70;99.90
69031;DHT22;56083;48.774;8.942;2023-09-30T05:55:20;13.70;99.90
69031;DHT22;56083;48.774;8.942;2023-09-30T05:57:50;13.70;99.90
69031;DHT22;56083;48.774;8.942;2023-09-30T06:00:18;13.80;99.90
69031;DHT22;56083;48.774;8.942;2023-09-30T06:02:56;13.80;99.90
69031;DHT22;56083;48.774;8.942;2023-09-30T06:05:22;13.90;99.90
69031;DHT22;56083;48.774;8.942;2023-09-30T06:07:49;14.00;99.90
69031;DHT22;56083;48.774;8.942;2023-09-30T06:10:15;14.00;99.90
69031;DHT22;56083;48.774;8.942;2023-09-30T06:12:45;14.00;99.90
69031;DHT22;56083;48.774;8.942;2023-09-30T06:15:12;14.00;99.90
69031;DHT22;56083;48.774;8.942;2023-09-30T06:17:39;14.00;99.90
69031;DHT22;56083;48.774;8.942;2023-09-30T06:20:05;14.10;99.90
69031;DHT22;56083;48.774;8.942;2023-09-30T06:22:42;14.20;99.90
69031;DHT22;56083;48.774;8.942;2023-09-30T06:25:08;14.30;99.90
69031;DHT22;56083;48.774;8.942;2023-09-30T06:27:34;14.30;99.90
69031;DHT22;56083;48.774;8.942;2023-09-30T06:29:59;14.40;99.90
69031;DHT22;56083;48.774;8.942;2023-09-30T06:32:25;14.50;99.90
69031;DHT22;56083;48.774;8.942;2023-09-30T06:34:51;14.50;99.90
69031;DHT22;56083;48.774;8.942;2023-09-30T06:37:18;14.60;99.90
69031;DHT22;56083;48.774;8.942;2023-09-30T06:39:43;14.80;99.90
69031;DHT22;56083;48.774;8.942;2023-09-30T06:42:09;14.80;99.90
69031;DHT22;56083;48.774;8.942;2023-09-30T06:44:35;15.00;99.90
69031;DHT22;56083;48.774;8.942;2023-09-30T06:47:00;15.20;99.90
69031;DHT22;56083;48.774;8.942;2023-09-30T06:49:26;15.40;99.90
69031;DHT22;56083;48.774;8.942;2023-09-30T06:51:51;15.60;99.90
69031;DHT22;56083;48.774;8.942;2023-09-30T06:54:17;15.90;99.90
69031;DHT22;56083;48.774;8.942;2023-09-30T06:56:43;16.10;99.90
69031;DHT22;56083;48.774;8.942;2023-09-30T06:59:08;16.40;99.90
69031;DHT22;56083;48.774;8.942;2023-09-30T07:01:34;16.80;99.90
69031;DHT22;56083;48.774;8.942;2023-09-30T07:04:00;17.00;99.90
69031;DHT22;56083;48.774;8.942;2023-09-30T07:06:26;17.10;99.90
69031;DHT22;56083;48.774;8.942;2023-09-30T07:08:52;17.30;99.90
69031;DHT22;56083;48.774;8.942;2023-09-30T07:11:38;17.80;99.90
69031;DHT22;56083;48.774;8.942;2023-09-30T07:14:04;18.10;99.90
69031;DHT22;56083;48.774;8.942;2023-09-30T07:16:30;18.40;99.90
69031;DHT22;56083;48.774;8.942;2023-09-30T07:18:55;18.70;99.90
69031;DHT22;56083;48.774;8.942;2023-09-30T07:21:21;18.90;99.90
69031;DHT22;56083;48.774;8.942;2023-09-30T07:23:47;19.10;99.90
69031;DHT22;56083;48.774;8.942;2023-09-30T07:26:13;19.20;99.90
69031;DHT22;56083;48.774;8.942;2023-09-30T07:28:40;19.00;99.90
69031;DHT22;56083;48.774;8.942;2023-09-30T07:31:05;18.80;99.90
69031;DHT22;56083;48.774;8.942;2023-09-30T07:33:32;18.70;99.90
69031;DHT22;56083;48.774;8.942;2023-09-30T07:35:57;18.60;99.90
69031;DHT22;56083;48.774;8.942;2023-09-30T07:38:23;18.90;99.90
69031;DHT22;56083;48.774;8.942;2023-09-30T07:40:48;18.60;99.90
69031;DHT22;56083;48.774;8.942;2023-09-30T07:43:14;18.80;99.90
69031;DHT22;56083;48.774;8.942;2023-09-30T07:45:40;19.00;99.90
69031;DHT22;56083;48.774;8.942;2023-09-30T07:48:09;19.70;99.90
69031;DHT22;56083;48.774;8.942;2023-09-30T07:50:36;20.30;99.90
69031;DHT22;56083;48.774;8.942;2023-09-30T07:53:02;20.40;99.90
69031;DHT22;56083;48.774;8.942;2023-09-30T07:55:28;20.60;99.90
69031;DHT22;56083;48.774;8.942;2023-09-30T07:57:54;20.70;99.90
69031;DHT22;56083;48.774;8.942;2023-09-30T08:00:19;20.50;99.90
69031;DHT22;56083;48.774;8.942;2023-09-30T08:02:46;20.60;99.90
69031;DHT22;56083;48.774;8.942;2023-09-30T08:05:12;20.40;99.90
69031;DHT22;56083;48.774;8.942;2023-09-30T08:07:38;20.30;99.90
69031;DHT22;56083;48.774;8.942;2023-09-30T08:10:04;20.10;99.90
69031;DHT22;56083;48.774;8.942;2023-09-30T08:12:32;20.30;99.90
69031;DHT22;56083;48.774;8.942;2023-09-30T08:14:57;20.40;99.90
69031;DHT22;56083;48.774;8.942;2023-09-30T08:17:23;20.40;99.90
69031;DHT22;56083;48.774;8.942;2023-09-30T08:19:48;20.30;99.90
69031;DHT22;56083;48.774;8.942;2023-09-30T08:22:14;20.10;99.90
69031;DHT22;56083;48.774;8.942;2023-09-30T08:24:40;20.10;99.90
69031;DHT22;56083;48.774;8.942;2023-09-30T08:27:06;20.30;99.90
69031;DHT22;56083;48.774;8.942;2023-09-30T08:29:34;19.90;99.90
69031;DHT22;56083;48.774;8.942;2023-09-30T08:32:02;20.20;99.90
69031;DHT22;56083;48.774;8.942;2023-09-30T08:34:27;20.20;99.90
69031;DHT22;56083;48.774;8.942;2023-09-30T08:36:54;20.10;99.90
69031;DHT22;56083;48.774;8.942;2023-09-30T08:39:20;20.40;99.90
69031;DHT22;56083;48.774;8.942;2023-09-30T08:41:45;20.50;99.90
69031;DHT22;56083;48.774;8.942;2023-09-30T08:44:11;20.30;99.90
69031;DHT22;56083;48.774;8.942;2023-09-30T08:46:39;20.80;99.90
69031;DHT22;56083;48.774;8.942;2023-09-30T08:49:05;21.70;99.90
69031;DHT22;56083;48.774;8.942;2023-09-30T08:51:31;22.90;99.90
69031;DHT22;56083;48.774;8.942;2023-09-30T08:53:58;24.00;99.90
69031;DHT22;56083;48.774;8.942;2023-09-30T08:56:27;24.90;99.90
69031;DHT22;56083;48.774;8.942;2023-09-30T08:58:57;25.70;99.90
69031;DHT22;56083;48.774;8.942;2023-09-30T09:01:28;25.30;99.90
69031;DHT22;56083;48.774;8.942;2023-09-30T09:03:54;25.90;99.90
69031;DHT22;56083;48.774;8.942;2023-09-30T09:06:24;25.70;99.90
69031;DHT22;56083;48.774;8.942;2023-09-30T09:08:50;26.50;99.90
69031;DHT22;56083;48.774;8.942;2023-09-30T09:11:16;26.00;99.90
69031;DHT22;56083;48.774;8.942;2023-09-30T09:13:53;26.50;99.90
69031;DHT22;56083;48.774;8.942;2023-09-30T09:16:22;26.40;99.90
69031;DHT22;56083;48.774;8.942;2023-09-30T09:18:49;27.30;99.90
69031;DHT22;56083;48.774;8.942;2023-09-30T09:21:17;26.90;99.90
69031;DHT22;56083;48.774;8.942;2023-09-30T09:23:43;28.20;99.90
69031;DHT22;56083;48.774;8.942;2023-09-30T09:26:11;28.60;99.90
69031;DHT22;56083;48.774;8.942;2023-09-30T09:28:37;29.30;99.90
69031;DHT22;56083;48.774;8.942;2023-09-30T09:31:28;29.80;99.90
69031;DHT22;56083;48.774;8.942;2023-09-30T09:33:54;30.50;99.90
69031;DHT22;56083;48.774;8.942;2023-09-30T09:36:20;31.00;98.20
69031;DHT22;56083;48.774;8.942;2023-09-30T09:38:50;31.20;96.40
69031;DHT22;56083;48.774;8.942;2023-09-30T09:41:19;30.90;94.20
69031;DHT22;56083;48.774;8.942;2023-09-30T09:43:48;30.40;94.50
69031;DHT22;56083;48.774;8.942;2023-09-30T09:46:17;29.90;93.70
69031;DHT22;56083;48.774;8.942;2023-09-30T09:48:45;29.70;94.20
69031;DHT22;56083;48.774;8.942;2023-09-30T09:51:13;30.70;93.70
69031;DHT22;56083;48.774;8.942;2023-09-30T09:53:41;31.10;93.30
69031;DHT22;56083;48.774;8.942;2023-09-30T09:56:10;31.70;91.40
69031;DHT22;56083;48.774;8.942;2023-09-30T09:58:39;30.30;90.90
69031;DHT22;56083;48.774;8.942;2023-09-30T10:01:06;30.50;90.90
69031;DHT22;56083;48.774;8.942;2023-09-30T10:03:32;29.60;90.80
69031;DHT22;56083;48.774;8.942;2023-09-30T10:05:59;30.30;91.00
69031;DHT22;56083;48.774;8.942;2023-09-30T10:08:33;30.50;90.30
69031;DHT22;56083;48.774;8.942;2023-09-30T10:11:01;31.20;90.20
69031;DHT22;56083;48.774;8.942;2023-09-30T10:19:11;27.40;92.60
69031;DHT22;56083;48.774;8.942;2023-09-30T10:21:37;27.90;92.50
69031;DHT22;56083;48.774;8.942;2023-09-30T10:29:47;30.30;87.90
69031;DHT22;56083;48.774;8.942;2023-09-30T10:32:13;30.80;87.50
69031;DHT22;56083;48.774;8.942;2023-09-30T10:34:51;31.70;86.50
69031;DHT22;56083;48.774;8.942;2023-09-30T10:37:22;32.70;81.60
69031;DHT22;56083;48.774;8.942;2023-09-30T10:42:43;33.10;79.60
69031;DHT22;56083;48.774;8.942;2023-09-30T10:50:57;31.50;74.00
69031;DHT22;56083;48.774;8.942;2023-09-30T10:53:29;31.20;77.80
69031;DHT22;56083;48.774;8.942;2023-09-30T10:55:56;29.70;81.30
69031;DHT22;56083;48.774;8.942;2023-09-30T10:58:48;28.50;83.70
69031;DHT22;56083;48.774;8.942;2023-09-30T11:01:16;27.40;89.10
69031;DHT22;56083;48.774;8.942;2023-09-30T11:03:42;26.90;91.00
69031;DHT22;56083;48.774;8.942;2023-09-30T11:06:14;26.30;90.90
69031;DHT22;56083;48.774;8.942;2023-09-30T11:08:46;26.00;92.30
69031;DHT22;56083;48.774;8.942;2023-09-30T11:11:16;25.40;93.20
69031;DHT22;56083;48.774;8.942;2023-09-30T11:13:41;25.20;93.40
69031;DHT22;56083;48.774;8.942;2023-09-30T11:16:07;25.00;94.10
69031;DHT22;56083;48.774;8.942;2023-09-30T11:18:34;24.50;93.80
69031;DHT22;56083;48.774;8.942;2023-09-30T11:23:31;24.00;95.50
69031;DHT22;56083;48.774;8.942;2023-09-30T11:25:57;23.90;95.80
69031;DHT22;56083;48.774;8.942;2023-09-30T11:28:23;23.80;96.00
69031;DHT22;56083;48.774;8.942;2023-09-30T11:30:56;23.70;94.70
69031;DHT22;56083;48.774;8.942;2023-09-30T11:33:22;23.60;95.40
69031;DHT22;56083;48.774;8.942;2023-09-30T11:36:01;24.40;95.50
69031;DHT22;56083;48.774;8.942;2023-09-30T11:38:28;25.00;94.70
69031;DHT22;56083;48.774;8.942;2023-09-30T11:41:01;25.20;94.20
69031;DHT22;56083;48.774;8.942;2023-09-30T11:43:28;25.10;93.90
69031;DHT22;56083;48.774;8.942;2023-09-30T11:46:10;25.20;93.60
69031;DHT22;56083;48.774;8.942;2023-09-30T11:48:40;25.00;94.40
69031;DHT22;56083;48.774;8.942;2023-09-30T11:51:19;24.70;93.70
69031;DHT22;56083;48.774;8.942;2023-09-30T11:53:44;24.60;93.80
69031;DHT22;56083;48.774;8.942;2023-09-30T11:56:11;24.60;93.90
69031;DHT22;56083;48.774;8.942;2023-09-30T11:58:37;24.80;94.20
69031;DHT22;56083;48.774;8.942;2023-09-30T12:01:04;26.20;92.70
69031;DHT22;56083;48.774;8.942;2023-09-30T12:03:32;26.90;91.60
69031;DHT22;56083;48.774;8.942;2023-09-30T12:06:02;27.80;91.30
69031;DHT22;56083;48.774;8.942;2023-09-30T12:08:27;29.00;88.60
69031;DHT22;56083;48.774;8.942;2023-09-30T12:10:54;30.60;82.40
69031;DHT22;56083;48.774;8.942;2023-09-30T12:13:21;31.00;80.50
69031;DHT22;56083;48.774;8.942;2023-09-30T12:15:46;31.70;78.10
69031;DHT22;56083;48.774;8.942;2023-09-30T12:18:12;32.10;76.50
69031;DHT22;56083;48.774;8.942;2023-09-30T12:20:42;32.80;72.20
69031;DHT22;56083;48.774;8.942;2023-09-30T12:23:08;32.90;73.70
69031;DHT22;56083;48.774;8.942;2023-09-30T12:25:34;33.40;71.80
69031;DHT22;56083;48.774;8.942;2023-09-30T12:27:59;33.40;71.00
69031;DHT22;56083;48.774;8.942;2023-09-30T12:30:25;33.00;67.00
69031;DHT22;56083;48.774;8.942;2023-09-30T12:32:52;31.70;70.50
69031;DHT22;56083;48.774;8.942;2023-09-30T12:35:20;30.60;72.80
69031;DHT22;56083;48.774;8.942;2023-09-30T12:37:46;29.40;75.50
69031;DHT22;56083;48.774;8.942;2023-09-30T12:40:12;29.70;76.40
69031;DHT22;56083;48.774;8.942;2023-09-30T12:42:39;30.40;75.20
69031;DHT22;56083;48.774;8.942;2023-09-30T12:45:05;31.90;72.60
69031;DHT22;56083;48.774;8.942;2023-09-30T12:47:31;32.50;69.50
69031;DHT22;56083;48.774;8.942;2023-09-30T12:49:57;31.60;70.70
69031;DHT22;56083;48.774;8.942;2023-09-30T12:52:23;31.40;71.70
69031;DHT22;56083;48.774;8.942;2023-09-30T12:54:49;31.30;72.00
69031;DHT22;56083;48.774;8.942;2023-09-30T12:57:15;30.70;73.90
69031;DHT22;56083;48.774;8.942;2023-09-30T12:59:45;29.60;74.80
69031;DHT22;56083;48.774;8.942;2023-09-30T13:02:12;28.70;77.10
69031;DHT22;56083;48.774;8.942;2023-09-30T13:04:38;27.20;79.80
69031;DHT22;56083;48.774;8.942;2023-09-30T13:07:09;25.80;83.30
69031;DHT22;56083;48.774;8.942;2023-09-30T13:09:36;25.00;86.20
69031;DHT22;56083;48.774;8.942;2023-09-30T13:12:02;24.30;89.10
69031;DHT22;56083;48.774;8.942;2023-09-30T13:14:28;23.80;90.50
69031;DHT22;56083;48.774;8.942;2023-09-30T13:16:54;23.90;91.00
69031;DHT22;56083;48.774;8.942;2023-09-30T13:19:20;24.20;91.30
69031;DHT22;56083;48.774;8.942;2023-09-30T13:21:52;24.90;90.20
69031;DHT22;56083;48.774;8.942;2023-09-30T13:24:21;25.00;90.00
69031;DHT22;56083;48.774;8.942;2023-09-30T13:26:47;25.20;89.10
69031;DHT22;56083;48.774;8.942;2023-09-30T13:29:14;25.20;88.40
69031;DHT22;56083;48.774;8.942;2023-09-30T13:31:42;25.30;88.30
69031;DHT22;56083;48.774;8.942;2023-09-30T13:34:08;25.70;89.30
69031;DHT22;56083;48.774;8.942;2023-09-30T13:36:34;27.60;85.80
69031;DHT22;56083;48.774;8.942;2023-09-30T13:38:59;29.30;81.50
69031;DHT22;56083;48.774;8.942;2023-09-30T13:41:26;30.70;76.50
69031;DHT22;56083;48.774;8.942;2023-09-30T13:43:52;31.20;74.50
69031;DHT22;56083;48.774;8.942;2023-09-30T13:46:18;30.70;74.60
69031;DHT22;56083;48.774;8.942;2023-09-30T13:48:43;30.80;74.20
69031;DHT22;56083;48.774;8.942;2023-09-30T13:51:09;31.60;73.60
69031;DHT22;56083;48.774;8.942;2023-09-30T13:53:36;32.10;70.20
69031;DHT22;56083;48.774;8.942;2023-09-30T13:56:02;32.60;69.90
69031;DHT22;56083;48.774;8.942;2023-09-30T13:58:31;32.90;67.70
69031;DHT22;56083;48.774;8.942;2023-09-30T14:00:56;33.00;66.70
69031;DHT22;56083;48.774;8.942;2023-09-30T14:03:22;32.10;67.10
69031;DHT22;56083;48.774;8.942;2023-09-30T14:05:50;30.60;70.10
69031;DHT22;56083;48.774;8.942;2023-09-30T14:08:16;29.30;72.00
69031;DHT22;56083;48.774;8.942;2023-09-30T14:10:42;28.20;75.50
69031;DHT22;56083;48.774;8.942;2023-09-30T14:13:09;27.70;77.10
69031;DHT22;56083;48.774;8.942;2023-09-30T14:15:35;26.90;78.60
69031;DHT22;56083;48.774;8.942;2023-09-30T14:18:00;26.50;81.70
69031;DHT22;56083;48.774;8.942;2023-09-30T14:20:27;26.70;80.70
69031;DHT22;56083;48.774;8.942;2023-09-30T14:22:53;26.80;81.20
69031;DHT22;56083;48.774;8.942;2023-09-30T14:25:21;27.10;81.30
69031;DHT22;56083;48.774;8.942;2023-09-30T14:27:47;27.90;79.70
69031;DHT22;56083;48.774;8.942;2023-09-30T14:30:14;28.00;78.50
69031;DHT22;56083;48.774;8.942;2023-09-30T14:32:40;28.20;76.70
69031;DHT22;56083;48.774;8.942;2023-09-30T14:35:07;27.80;78.00
69031;DHT22;56083;48.774;8.942;2023-09-30T14:37:33;27.60;80.50
69031;DHT22;56083;48.774;8.942;2023-09-30T14:39:58;27.00;81.10
69031;DHT22;56083;48.774;8.942;2023-09-30T14:42:24;26.40;82.30
69031;DHT22;56083;48.774;8.942;2023-09-30T14:44:50;25.70;84.00
69031;DHT22;56083;48.774;8.942;2023-09-30T14:47:15;24.80;87.10
69031;DHT22;56083;48.774;8.942;2023-09-30T14:49:41;24.40;88.90
69031;DHT22;56083;48.774;8.942;2023-09-30T14:52:07;24.10;89.60
69031;DHT22;56083;48.774;8.942;2023-09-30T14:54:34;23.90;90.30
69031;DHT22;56083;48.774;8.942;2023-09-30T14:57:00;23.70;90.90
69031;DHT22;56083;48.774;8.942;2023-09-30T14:59:26;23.60;90.70
69031;DHT22;56083;48.774;8.942;2023-09-30T15:01:52;24.00;90.90
69031;DHT22;56083;48.774;8.942;2023-09-30T15:04:18;24.10;90.80
69031;DHT22;56083;48.774;8.942;2023-09-30T15:06:44;24.40;90.30
69031;DHT22;56083;48.774;8.942;2023-09-30T15:09:11;24.30;90.50
69031;DHT22;56083;48.774;8.942;2023-09-30T15:11:37;23.90;90.50
69031;DHT22;56083;48.774;8.942;2023-09-30T15:14:03;23.70;91.30
69031;DHT22;56083;48.774;8.942;2023-09-30T15:16:30;23.30;91.70
69031;DHT22;56083;48.774;8.942;2023-09-30T15:18:56;22.90;92.60
69031;DHT22;56083;48.774;8.942;2023-09-30T15:21:22;22.70;93.50
69031;DHT22;56083;48.774;8.942;2023-09-30T15:23:50;22.40;93.50
69031;DHT22;56083;48.774;8.942;2023-09-30T15:26:16;22.20;94.00
69031;DHT22;56083;48.774;8.942;2023-09-30T15:28:42;22.00;94.10
69031;DHT22;56083;48.774;8.942;2023-09-30T15:31:08;21.80;94.70
69031;DHT22;56083;48.774;8.942;2023-09-30T15:33:34;21.90;95.10
69031;DHT22;56083;48.774;8.942;2023-09-30T15:36:08;21.80;94.80
69031;DHT22;56083;48.774;8.942;2023-09-30T15:38:33;21.80;95.00
69031;DHT22;56083;48.774;8.942;2023-09-30T15:40:59;21.70;95.20
69031;DHT22;56083;48.774;8.942;2023-09-30T15:43:29;21.60;95.50
69031;DHT22;56083;48.774;8.942;2023-09-30T15:45:55;21.70;95.10
69031;DHT22;56083;48.774;8.942;2023-09-30T15:48:21;21.80;95.10
69031;DHT22;56083;48.774;8.942;2023-09-30T15:50:47;21.90;95.40